Evansdale, Iowa
Current Conditions -  °F | °C
As of 12:54 AM on Sunday 23 Nov 2014 (Local Time) from KALO Reporting Station
Overcast Overcast  
Wind Chill: 51°   Ceiling: 1400
Heat Index: 51°   Visibility: 10mi
Dew Point: 49°   Wind: 12mph
Humidity: 92%   Direction: 200°SSW
Pressure: 29.62"   Gusts: NA
Location:  42.47°N, 92.28°W
Report Text: KALO 230654Z 20010KT 10SM OVC014 11/09 A2962 RMK AO2 SLP034 T01060094 $
Loading
Personal Weather Stations






























Interactive Weather Map New forecast layout! Learn more

10-Day Weather Forecast

Advertisements
Track Severe Weather on mobile